sensor_id;sensor_type;location;lat;lon;timestamp;pressure;altitude;pressure_sealevel;temperature;humidity
20825;BME280;10573;50.936;6.978;2022-07-31T00:00:54;101364.72;;;23.27;46.28
20825;BME280;10573;50.936;6.978;2022-07-31T00:03:20;101360.25;;;23.26;46.09
20825;BME280;10573;50.936;6.978;2022-07-31T00:05:45;101359.16;;;23.13;46.67
20825;BME280;10573;50.936;6.978;2022-07-31T00:08:11;101369.22;;;23.15;46.48
20825;BME280;10573;50.936;6.978;2022-07-31T00:10:36;101363.84;;;23.06;46.73
20825;BME280;10573;50.936;6.978;2022-07-31T00:13:02;101365.59;;;23.14;46.79
20825;BME280;10573;50.936;6.978;2022-07-31T00:15:28;101363.84;;;23.06;46.76
20825;BME280;10573;50.936;6.978;2022-07-31T00:17:53;101371.31;;;22.92;47.27
20825;BME280;10573;50.936;6.978;2022-07-31T00:20:19;101362.34;;;22.97;47.03
20825;BME280;10573;50.936;6.978;2022-07-31T00:22:45;101364.66;;;22.87;47.63
20825;BME280;10573;50.936;6.978;2022-07-31T00:25:12;101365.56;;;22.94;47.43
20825;BME280;10573;50.936;6.978;2022-07-31T00:27:39;101365.94;;;22.84;47.45
20825;BME280;10573;50.936;6.978;2022-07-31T00:30:05;101367.44;;;22.87;47.75
20825;BME280;10573;50.936;6.978;2022-07-31T00:32:31;101372.81;;;22.82;47.40
20825;BME280;10573;50.936;6.978;2022-07-31T00:34:56;101360.41;;;22.91;47.27
20825;BME280;10573;50.936;6.978;2022-07-31T00:37:22;101353.16;;;22.90;47.79
20825;BME280;10573;50.936;6.978;2022-07-31T00:39:47;101345.88;;;22.95;47.63
20825;BME280;10573;50.936;6.978;2022-07-31T00:42:20;101342.03;;;22.90;47.66
20825;BME280;10573;50.936;6.978;2022-07-31T00:44:45;101355.25;;;22.74;48.04
20825;BME280;10573;50.936;6.978;2022-07-31T00:47:11;101346.28;;;22.72;48.19
20825;BME280;10573;50.936;6.978;2022-07-31T00:49:37;101344.13;;;22.68;48.81
20825;BME280;10573;50.936;6.978;2022-07-31T00:52:02;101327.91;;;22.78;48.13
20825;BME280;10573;50.936;6.978;2022-07-31T00:54:28;101331.53;;;22.72;48.76
20825;BME280;10573;50.936;6.978;2022-07-31T00:56:54;101334.97;;;22.67;48.63
20825;BME280;10573;50.936;6.978;2022-07-31T00:59:19;101332.19;;;22.67;48.74
20825;BME280;10573;50.936;6.978;2022-07-31T01:01:44;101331.97;;;22.62;48.83
20825;BME280;10573;50.936;6.978;2022-07-31T01:04:10;101321.28;;;22.59;48.80
20825;BME280;10573;50.936;6.978;2022-07-31T01:06:37;101324.03;;;22.45;49.49
20825;BME280;10573;50.936;6.978;2022-07-31T01:09:03;101332.56;;;22.37;49.63
20825;BME280;10573;50.936;6.978;2022-07-31T01:11:45;101329.13;;;22.35;49.91
20825;BME280;10573;50.936;6.978;2022-07-31T01:14:12;101328.31;;;22.41;49.83
20825;BME280;10573;50.936;6.978;2022-07-31T01:16:47;101328.47;;;22.40;49.84
20825;BME280;10573;50.936;6.978;2022-07-31T01:19:36;101322.34;;;22.51;49.42
20825;BME280;10573;50.936;6.978;2022-07-31T01:28:12;101331.41;;;22.25;50.28
20825;BME280;10573;50.936;6.978;2022-07-31T01:30:42;101333.31;;;22.18;50.68
20825;BME280;10573;50.936;6.978;2022-07-31T01:33:13;101328.59;;;22.18;50.71
20825;BME280;10573;50.936;6.978;2022-07-31T01:35:42;101332.88;;;22.21;50.52
20825;BME280;10573;50.936;6.978;2022-07-31T01:38:16;101325.63;;;22.20;50.87
20825;BME280;10573;50.936;6.978;2022-07-31T01:40:47;101326.03;;;22.17;50.72
20825;BME280;10573;50.936;6.978;2022-07-31T01:43:18;101320.06;;;22.20;50.53
20825;BME280;10573;50.936;6.978;2022-07-31T01:45:48;101314.94;;;22.17;50.38
20825;BME280;10573;50.936;6.978;2022-07-31T01:48:15;101314.09;;;22.16;50.41
20825;BME280;10573;50.936;6.978;2022-07-31T01:50:43;101323.41;;;21.95;50.46
20825;BME280;10573;50.936;6.978;2022-07-31T01:53:16;101322.16;;;22.04;50.71
20825;BME280;10573;50.936;6.978;2022-07-31T01:55:43;101318.94;;;22.01;50.37
20825;BME280;10573;50.936;6.978;2022-07-31T01:58:10;101320.38;;;21.90;50.59
20825;BME280;10573;50.936;6.978;2022-07-31T02:00:37;101314.63;;;21.91;50.87
20825;BME280;10573;50.936;6.978;2022-07-31T02:03:04;101306.72;;;21.88;50.76
20825;BME280;10573;50.936;6.978;2022-07-31T02:05:31;101310.75;;;21.79;51.06
20825;BME280;10573;50.936;6.978;2022-07-31T02:07:57;101312.44;;;21.73;51.07
20825;BME280;10573;50.936;6.978;2022-07-31T02:10:24;101315.75;;;21.62;51.40
20825;BME280;10573;50.936;6.978;2022-07-31T02:12:50;101316.88;;;21.68;51.60
20825;BME280;10573;50.936;6.978;2022-07-31T02:15:16;101314.53;;;21.71;51.33
20825;BME280;10573;50.936;6.978;2022-07-31T02:17:44;101317.94;;;21.67;51.36
20825;BME280;10573;50.936;6.978;2022-07-31T02:20:12;101317.53;;;21.70;51.56
20825;BME280;10573;50.936;6.978;2022-07-31T02:22:38;101314.28;;;21.59;51.92
20825;BME280;10573;50.936;6.978;2022-07-31T02:25:05;101313.50;;;21.79;51.24
20825;BME280;10573;50.936;6.978;2022-07-31T02:27:32;101313.00;;;21.62;51.84
20825;BME280;10573;50.936;6.978;2022-07-31T02:29:59;101315.38;;;21.65;51.45
20825;BME280;10573;50.936;6.978;2022-07-31T02:32:27;101314.72;;;21.63;51.81
20825;BME280;10573;50.936;6.978;2022-07-31T02:34:54;101319.38;;;21.56;51.83
20825;BME280;10573;50.936;6.978;2022-07-31T02:37:22;101316.53;;;21.49;52.05
20825;BME280;10573;50.936;6.978;2022-07-31T02:39:49;101304.72;;;21.40;52.42
20825;BME280;10573;50.936;6.978;2022-07-31T02:42:16;101309.91;;;21.43;52.05
20825;BME280;10573;50.936;6.978;2022-07-31T02:44:42;101307.75;;;21.45;52.18
20825;BME280;10573;50.936;6.978;2022-07-31T02:47:10;101311.38;;;21.39;52.79
20825;BME280;10573;50.936;6.978;2022-07-31T02:49:36;101299.13;;;21.55;51.89
20825;BME280;10573;50.936;6.978;2022-07-31T02:52:03;101305.88;;;21.46;52.23
20825;BME280;10573;50.936;6.978;2022-07-31T02:54:29;101303.50;;;21.50;52.33
20825;BME280;10573;50.936;6.978;2022-07-31T02:56:56;101308.00;;;21.51;52.35
20825;BME280;10573;50.936;6.978;2022-07-31T02:59:22;101306.81;;;21.60;52.02
20825;BME280;10573;50.936;6.978;2022-07-31T03:01:48;101296.66;;;21.45;52.15
20825;BME280;10573;50.936;6.978;2022-07-31T03:04:13;101300.91;;;21.41;52.09
20825;BME280;10573;50.936;6.978;2022-07-31T03:06:39;101324.44;;;21.52;52.07
20825;BME280;10573;50.936;6.978;2022-07-31T03:09:04;101325.81;;;21.63;51.72
20825;BME280;10573;50.936;6.978;2022-07-31T03:11:31;101317.28;;;21.65;51.62
20825;BME280;10573;50.936;6.978;2022-07-31T03:13:57;101319.44;;;21.69;51.86
20825;BME280;10573;50.936;6.978;2022-07-31T03:16:25;101324.16;;;21.75;52.23
20825;BME280;10573;50.936;6.978;2022-07-31T03:18:52;101328.03;;;21.81;51.96
20825;BME280;10573;50.936;6.978;2022-07-31T03:21:19;101319.44;;;21.69;52.81
20825;BME280;10573;50.936;6.978;2022-07-31T03:23:46;101321.63;;;21.81;52.60
20825;BME280;10573;50.936;6.978;2022-07-31T03:26:11;101315.66;;;21.77;53.11
20825;BME280;10573;50.936;6.978;2022-07-31T03:28:39;101310.25;;;21.69;52.88
20825;BME280;10573;50.936;6.978;2022-07-31T03:31:05;101318.56;;;21.69;52.69
20825;BME280;10573;50.936;6.978;2022-07-31T03:33:32;101313.47;;;21.72;52.76
20825;BME280;10573;50.936;6.978;2022-07-31T03:35:59;101307.47;;;21.69;52.74
20825;BME280;10573;50.936;6.978;2022-07-31T03:38:25;101304.09;;;21.73;52.27
20825;BME280;10573;50.936;6.978;2022-07-31T03:40:50;101310.97;;;21.49;52.92
20825;BME280;10573;50.936;6.978;2022-07-31T03:43:16;101310.22;;;21.55;52.98
20825;BME280;10573;50.936;6.978;2022-07-31T03:45:43;101311.72;;;21.65;52.96
20825;BME280;10573;50.936;6.978;2022-07-31T03:48:10;101319.25;;;21.71;52.62
20825;BME280;10573;50.936;6.978;2022-07-31T03:50:37;101317.72;;;21.68;52.78
20825;BME280;10573;50.936;6.978;2022-07-31T03:53:04;101311.69;;;21.58;52.84
20825;BME280;10573;50.936;6.978;2022-07-31T03:55:31;101314.13;;;21.68;53.00
20825;BME280;10573;50.936;6.978;2022-07-31T03:57:58;101314.31;;;21.66;53.51
20825;BME280;10573;50.936;6.978;2022-07-31T04:00:24;101313.41;;;21.59;53.52
20825;BME280;10573;50.936;6.978;2022-07-31T04:02:55;101307.06;;;21.65;53.78
20825;BME280;10573;50.936;6.978;2022-07-31T04:05:21;101308.91;;;21.58;53.57
20825;BME280;10573;50.936;6.978;2022-07-31T04:07:47;101304.66;;;21.62;53.53
20825;BME280;10573;50.936;6.978;2022-07-31T04:10:13;101313.03;;;21.69;53.20
20825;BME280;10573;50.936;6.978;2022-07-31T04:12:38;101314.69;;;21.56;53.63
20825;BME280;10573;50.936;6.978;2022-07-31T04:15:04;101314.69;;;21.56;53.56
20825;BME280;10573;50.936;6.978;2022-07-31T04:17:30;101317.09;;;21.66;53.58
20825;BME280;10573;50.936;6.978;2022-07-31T04:19:55;101319.88;;;21.66;53.21
20825;BME280;10573;50.936;6.978;2022-07-31T04:22:20;101322.44;;;21.68;53.42
20825;BME280;10573;50.936;6.978;2022-07-31T04:24:46;101317.28;;;21.65;53.42
20825;BME280;10573;50.936;6.978;2022-07-31T04:27:14;101324.81;;;21.77;53.13
20825;BME280;10573;50.936;6.978;2022-07-31T04:29:41;101316.47;;;21.71;53.14
20825;BME280;10573;50.936;6.978;2022-07-31T04:32:07;101323.66;;;21.58;53.88
20825;BME280;10573;50.936;6.978;2022-07-31T04:34:32;101317.53;;;21.70;53.27
20825;BME280;10573;50.936;6.978;2022-07-31T04:36:58;101314.03;;;21.54;53.86
20825;BME280;10573;50.936;6.978;2022-07-31T04:39:23;101320.25;;;21.63;53.92
20825;BME280;10573;50.936;6.978;2022-07-31T04:41:48;101313.84;;;21.56;54.35
20825;BME280;10573;50.936;6.978;2022-07-31T04:44:14;101314.19;;;21.46;54.17
20825;BME280;10573;50.936;6.978;2022-07-31T04:46:39;101312.66;;;21.78;53.23
20825;BME280;10573;50.936;6.978;2022-07-31T04:49:05;101312.00;;;21.76;53.43
20825;BME280;10573;50.936;6.978;2022-07-31T04:51:30;101317.72;;;21.68;53.67
20825;BME280;10573;50.936;6.978;2022-07-31T04:53:56;101326.25;;;21.67;53.90
20825;BME280;10573;50.936;6.978;2022-07-31T04:56:21;101318.19;;;21.72;53.65
20825;BME280;10573;50.936;6.978;2022-07-31T04:59:05;101323.06;;;21.70;53.86
20825;BME280;10573;50.936;6.978;2022-07-31T05:01:31;101322.03;;;21.77;53.77
20825;BME280;10573;50.936;6.978;2022-07-31T05:03:57;101316.72;;;21.76;53.99
20825;BME280;10573;50.936;6.978;2022-07-31T05:06:52;101312.16;;;21.61;53.63
20825;BME280;10573;50.936;6.978;2022-07-31T05:09:18;101319.03;;;21.72;53.84
20825;BME280;10573;50.936;6.978;2022-07-31T05:11:46;101312.88;;;21.77;54.11
20825;BME280;10573;50.936;6.978;2022-07-31T05:14:13;101316.97;;;21.88;53.98
20825;BME280;10573;50.936;6.978;2022-07-31T05:16:39;101320.56;;;21.82;54.07
20825;BME280;10573;50.936;6.978;2022-07-31T05:19:05;101318.06;;;21.93;54.12
20825;BME280;10573;50.936;6.978;2022-07-31T05:21:31;101325.97;;;21.96;53.93
20825;BME280;10573;50.936;6.978;2022-07-31T05:23:59;101326.00;;;22.03;52.56
20825;BME280;10573;50.936;6.978;2022-07-31T05:26:25;101328.63;;;22.25;50.82
20825;BME280;10573;50.936;6.978;2022-07-31T05:28:52;101331.28;;;22.53;50.14
20825;BME280;10573;50.936;6.978;2022-07-31T05:31:18;101328.72;;;22.52;49.97
20825;BME280;10573;50.936;6.978;2022-07-31T05:33:46;101331.31;;;22.60;50.01
20825;BME280;10573;50.936;6.978;2022-07-31T05:36:12;101324.50;;;22.83;50.29
20825;BME280;10573;50.936;6.978;2022-07-31T05:38:37;101325.78;;;22.87;49.25
20825;BME280;10573;50.936;6.978;2022-07-31T05:41:03;101322.59;;;22.76;49.29
20825;BME280;10573;50.936;6.978;2022-07-31T05:43:28;101326.22;;;22.84;49.39
20825;BME280;10573;50.936;6.978;2022-07-31T05:45:54;101312.09;;;22.72;49.57
20825;BME280;10573;50.936;6.978;2022-07-31T05:48:20;101310.81;;;22.61;50.11
20825;BME280;10573;50.936;6.978;2022-07-31T05:50:46;101318.72;;;22.77;49.85
20825;BME280;10573;50.936;6.978;2022-07-31T05:53:12;101312.09;;;22.78;49.53
20825;BME280;10573;50.936;6.978;2022-07-31T05:55:43;101319.81;;;22.90;49.60
20825;BME280;10573;50.936;6.978;2022-07-31T05:58:10;101323.00;;;22.87;49.60
20825;BME280;10573;50.936;6.978;2022-07-31T06:00:36;101331.75;;;22.70;50.09
20825;BME280;10573;50.936;6.978;2022-07-31T06:03:02;101327.50;;;22.88;49.79
20825;BME280;10573;50.936;6.978;2022-07-31T06:05:28;101325.38;;;22.90;49.60
20825;BME280;10573;50.936;6.978;2022-07-31T06:07:54;101311.25;;;22.78;50.11
20825;BME280;10573;50.936;6.978;2022-07-31T06:10:20;101313.38;;;22.69;50.32
20825;BME280;10573;50.936;6.978;2022-07-31T06:12:46;101318.06;;;22.62;50.28
20825;BME280;10573;50.936;6.978;2022-07-31T06:15:11;101313.56;;;22.61;50.44
20825;BME280;10573;50.936;6.978;2022-07-31T06:17:38;101318.94;;;22.83;50.26
20825;BME280;10573;50.936;6.978;2022-07-31T06:20:03;101317.03;;;22.96;49.92
20825;BME280;10573;50.936;6.978;2022-07-31T06:22:29;101315.94;;;22.91;50.28
20825;BME280;10573;50.936;6.978;2022-07-31T06:24:54;101310.84;;;23.15;49.61
20825;BME280;10573;50.936;6.978;2022-07-31T06:27:20;101319.59;;;23.05;49.63
20825;BME280;10573;50.936;6.978;2022-07-31T06:29:47;101321.50;;;23.11;50.09
20825;BME280;10573;50.936;6.978;2022-07-31T06:32:12;101322.38;;;22.85;50.54
20825;BME280;10573;50.936;6.978;2022-07-31T06:34:38;101328.16;;;23.17;49.57
20825;BME280;10573;50.936;6.978;2022-07-31T06:37:04;101319.41;;;23.13;49.45
20825;BME280;10573;50.936;6.978;2022-07-31T06:39:30;101308.47;;;23.11;49.53
20825;BME280;10573;50.936;6.978;2022-07-31T06:41:55;101310.59;;;23.23;49.74
20825;BME280;10573;50.936;6.978;2022-07-31T06:44:21;101316.81;;;23.25;49.76
20825;BME280;10573;50.936;6.978;2022-07-31T06:46:46;101319.78;;;23.43;49.51
20825;BME280;10573;50.936;6.978;2022-07-31T06:49:13;101315.56;;;23.21;49.89
20825;BME280;10573;50.936;6.978;2022-07-31T06:51:39;101311.69;;;22.95;50.32
20825;BME280;10573;50.936;6.978;2022-07-31T06:54:06;101303.75;;;22.92;50.40
20825;BME280;10573;50.936;6.978;2022-07-31T06:56:33;101311.25;;;22.85;50.58
20825;BME280;10573;50.936;6.978;2022-07-31T06:58:59;101310.38;;;23.11;50.46
20825;BME280;10573;50.936;6.978;2022-07-31T07:01:25;101307.59;;;22.71;51.01
20825;BME280;10573;50.936;6.978;2022-07-31T07:03:50;101309.97;;;22.74;51.04
20825;BME280;10573;50.936;6.978;2022-07-31T07:06:16;101315.94;;;22.91;51.06
20825;BME280;10573;50.936;6.978;2022-07-31T07:08:41;101317.66;;;22.92;50.98
20825;BME280;10573;50.936;6.978;2022-07-31T07:11:07;101313.38;;;23.09;50.67
20825;BME280;10573;50.936;6.978;2022-07-31T07:13:32;101315.94;;;23.04;50.77
20825;BME280;10573;50.936;6.978;2022-07-31T07:15:58;101318.75;;;23.18;50.24
20825;BME280;10573;50.936;6.978;2022-07-31T07:18:23;101313.38;;;23.23;49.84
20825;BME280;10573;50.936;6.978;2022-07-31T07:20:49;101317.66;;;23.05;50.28
20825;BME280;10573;50.936;6.978;2022-07-31T07:23:14;101311.50;;;23.17;49.99
20825;BME280;10573;50.936;6.978;2022-07-31T07:25:40;101314.25;;;23.03;50.42
20825;BME280;10573;50.936;6.978;2022-07-31T07:28:06;101323.19;;;22.72;50.92
20825;BME280;10573;50.936;6.978;2022-07-31T07:30:32;101321.09;;;22.81;50.68
20825;BME280;10573;50.936;6.978;2022-07-31T07:32:58;101312.31;;;22.84;50.62
20825;BME280;10573;50.936;6.978;2022-07-31T07:35:24;101319.16;;;22.81;51.14
20825;BME280;10573;50.936;6.978;2022-07-31T07:37:49;101310.19;;;22.86;50.95
20825;BME280;10573;50.936;6.978;2022-07-31T07:40:15;101312.75;;;22.67;51.75
20825;BME280;10573;50.936;6.978;2022-07-31T07:42:41;101313.59;;;22.88;51.43
20825;BME280;10573;50.936;6.978;2022-07-31T07:45:07;101309.31;;;22.85;51.14
20825;BME280;10573;50.936;6.978;2022-07-31T07:47:33;101310.59;;;22.83;50.88
20825;BME280;10573;50.936;6.978;2022-07-31T07:49:58;101297.34;;;22.71;50.89
20825;BME280;10573;50.936;6.978;2022-07-31T07:52:23;101298.44;;;22.84;50.84
20825;BME280;10573;50.936;6.978;2022-07-31T07:54:49;101297.59;;;22.83;50.43
20825;BME280;10573;50.936;6.978;2022-07-31T07:57:18;101309.09;;;22.73;50.58
20825;BME280;10573;50.936;6.978;2022-07-31T07:59:45;101299.06;;;22.99;50.43
20825;BME280;10573;50.936;6.978;2022-07-31T08:02:10;101292.88;;;23.24;49.29
20825;BME280;10573;50.936;6.978;2022-07-31T08:04:39;101285.97;;;23.46;49.11
20825;BME280;10573;50.936;6.978;2022-07-31T08:07:05;101284.63;;;23.69;48.28
20825;BME280;10573;50.936;6.978;2022-07-31T08:09:31;101279.47;;;23.66;48.54
20825;BME280;10573;50.936;6.978;2022-07-31T08:11:58;101277.44;;;24.00;47.37
20825;BME280;10573;50.936;6.978;2022-07-31T08:14:25;101279.44;;;23.79;48.14
20825;BME280;10573;50.936;6.978;2022-07-31T08:16:51;101281.53;;;23.98;48.22
20825;BME280;10573;50.936;6.978;2022-07-31T08:19:17;101281.22;;;24.12;47.50
20825;BME280;10573;50.936;6.978;2022-07-31T08:21:42;101276.34;;;24.08;47.58
20825;BME280;10573;50.936;6.978;2022-07-31T08:24:08;101285.34;;;24.03;47.94
20825;BME280;10573;50.936;6.978;2022-07-31T08:26:36;101284.13;;;23.92;48.42
20825;BME280;10573;50.936;6.978;2022-07-31T08:29:20;101275.78;;;24.31;47.44
20825;BME280;10573;50.936;6.978;2022-07-31T08:31:45;101286.72;;;24.58;47.21
20825;BME280;10573;50.936;6.978;2022-07-31T08:34:11;101276.28;;;25.04;46.50
20825;BME280;10573;50.936;6.978;2022-07-31T08:36:37;101279.44;;;24.57;47.65
20825;BME280;10573;50.936;6.978;2022-07-31T08:39:02;101272.19;;;25.06;46.45
20825;BME280;10573;50.936;6.978;2022-07-31T08:41:28;101268.63;;;25.43;45.78
20825;BME280;10573;50.936;6.978;2022-07-31T08:43:54;101278.63;;;25.51;45.06
20825;BME280;10573;50.936;6.978;2022-07-31T08:46:21;101270.34;;;25.62;45.42
20825;BME280;10573;50.936;6.978;2022-07-31T08:48:50;101267.81;;;24.92;46.79
20825;BME280;10573;50.936;6.978;2022-07-31T08:51:17;101271.63;;;24.98;46.98
20825;BME280;10573;50.936;6.978;2022-07-31T08:53:43;101275.00;;;24.81;47.10
20825;BME280;10573;50.936;6.978;2022-07-31T08:56:09;101262.69;;;25.14;46.98
20825;BME280;10573;50.936;6.978;2022-07-31T08:58:35;101262.59;;;25.02;46.80
20825;BME280;10573;50.936;6.978;2022-07-31T09:01:01;101254.28;;;25.76;46.27
20825;BME280;10573;50.936;6.978;2022-07-31T09:03:27;101255.31;;;26.67;44.19
20825;BME280;10573;50.936;6.978;2022-07-31T09:05:52;101259.34;;;26.17;44.60
20825;BME280;10573;50.936;6.978;2022-07-31T09:08:18;101273.03;;;25.88;44.95
20825;BME280;10573;50.936;6.978;2022-07-31T09:10:43;101263.19;;;25.67;45.45
20825;BME280;10573;50.936;6.978;2022-07-31T09:13:17;101261.88;;;25.51;46.39
20825;BME280;10573;50.936;6.978;2022-07-31T09:15:43;101265.75;;;25.50;46.31
20825;BME280;10573;50.936;6.978;2022-07-31T09:18:18;101252.72;;;25.25;47.46
20825;BME280;10573;50.936;6.978;2022-07-31T09:20:56;101256.75;;;25.29;47.44
20825;BME280;10573;50.936;6.978;2022-07-31T09:23:22;101251.47;;;25.21;47.54
20825;BME280;10573;50.936;6.978;2022-07-31T09:25:59;101249.28;;;25.23;47.24
20825;BME280;10573;50.936;6.978;2022-07-31T09:28:33;101251.88;;;25.43;46.81
20825;BME280;10573;50.936;6.978;2022-07-31T09:30:58;101259.53;;;25.29;46.07
20825;BME280;10573;50.936;6.978;2022-07-31T09:33:26;101263.13;;;25.55;46.22
20825;BME280;10573;50.936;6.978;2022-07-31T09:35:52;101254.56;;;25.87;45.40
20825;BME280;10573;50.936;6.978;2022-07-31T09:38:18;101260.91;;;25.94;45.34
20825;BME280;10573;50.936;6.978;2022-07-31T09:40:44;101249.34;;;26.09;44.75
20825;BME280;10573;50.936;6.978;2022-07-31T09:43:16;101249.06;;;26.41;44.12
20825;BME280;10573;50.936;6.978;2022-07-31T09:46:01;101255.06;;;26.44;43.52
20825;BME280;10573;50.936;6.978;2022-07-31T09:48:27;101240.00;;;26.69;43.34
20825;BME280;10573;50.936;6.978;2022-07-31T09:50:54;101247.59;;;27.04;43.00
20825;BME280;10573;50.936;6.978;2022-07-31T09:53:20;101235.16;;;27.48;42.10
20825;BME280;10573;50.936;6.978;2022-07-31T09:55:52;101236.59;;;27.62;41.59
20825;BME280;10573;50.936;6.978;2022-07-31T09:58:19;101238.25;;;28.16;40.79
20825;BME280;10573;50.936;6.978;2022-07-31T10:00:52;101235.66;;;28.60;39.93
20825;BME280;10573;50.936;6.978;2022-07-31T10:03:18;101235.81;;;27.78;41.35
20825;BME280;10573;50.936;6.978;2022-07-31T10:05:45;101236.47;;;28.09;41.34
20825;BME280;10573;50.936;6.978;2022-07-31T10:08:13;101239.00;;;28.28;40.28
20825;BME280;10573;50.936;6.978;2022-07-31T10:10:42;101246.38;;;27.88;41.08
20825;BME280;10573;50.936;6.978;2022-07-31T10:13:10;101251.81;;;27.54;41.99
20825;BME280;10573;50.936;6.978;2022-07-31T10:15:38;101249.41;;;26.87;43.13
20825;BME280;10573;50.936;6.978;2022-07-31T10:18:05;101249.19;;;27.00;43.74
20825;BME280;10573;50.936;6.978;2022-07-31T10:20:33;101258.78;;;26.38;44.64
20825;BME280;10573;50.936;6.978;2022-07-31T10:23:08;101258.72;;;26.57;43.99
20825;BME280;10573;50.936;6.978;2022-07-31T10:25:37;101247.47;;;26.33;44.29
20825;BME280;10573;50.936;6.978;2022-07-31T10:28:06;101246.75;;;26.26;44.22
20825;BME280;10573;50.936;6.978;2022-07-31T10:30:31;101247.06;;;26.18;44.13
20825;BME280;10573;50.936;6.978;2022-07-31T10:32:57;101228.94;;;26.51;43.13
20825;BME280;10573;50.936;6.978;2022-07-31T10:35:23;101231.56;;;26.88;42.02
20825;BME280;10573;50.936;6.978;2022-07-31T10:38:03;101224.81;;;26.65;41.28
20825;BME280;10573;50.936;6.978;2022-07-31T10:40:43;101223.88;;;27.07;40.38
20825;BME280;10573;50.936;6.978;2022-07-31T10:46:00;101214.81;;;27.93;38.82
20825;BME280;10573;50.936;6.978;2022-07-31T10:48:27;101216.94;;;28.32;38.34
20825;BME280;10573;50.936;6.978;2022-07-31T10:51:07;101213.09;;;29.23;36.89
20825;BME280;10573;50.936;6.978;2022-07-31T10:53:35;101212.63;;;28.92;37.23
20825;BME280;10573;50.936;6.978;2022-07-31T10:56:07;101211.31;;;30.05;35.03
20825;BME280;10573;50.936;6.978;2022-07-31T10:58:48;101197.28;;;28.77;37.67
20825;BME280;10573;50.936;6.978;2022-07-31T11:01:14;101198.97;;;29.18;37.71
20825;BME280;10573;50.936;6.978;2022-07-31T11:03:43;101194.16;;;29.79;36.46
20825;BME280;10573;50.936;6.978;2022-07-31T11:06:11;101182.66;;;29.81;36.07
20825;BME280;10573;50.936;6.978;2022-07-31T11:08:45;101182.97;;;29.57;36.99
20825;BME280;10573;50.936;6.978;2022-07-31T11:11:14;101182.63;;;29.54;35.79
20825;BME280;10573;50.936;6.978;2022-07-31T11:16:10;101174.59;;;31.30;33.03
20825;BME280;10573;50.936;6.978;2022-07-31T11:18:36;101176.34;;;30.93;33.07
20825;BME280;10573;50.936;6.978;2022-07-31T11:21:04;101181.28;;;31.13;33.74
20825;BME280;10573;50.936;6.978;2022-07-31T11:23:31;101173.63;;;31.67;31.93
20825;BME280;10573;50.936;6.978;2022-07-31T11:25:59;101179.66;;;31.28;32.01
20825;BME280;10573;50.936;6.978;2022-07-31T11:28:26;101187.88;;;31.40;31.93
20825;BME280;10573;50.936;6.978;2022-07-31T11:30:54;101192.19;;;30.35;33.60
20825;BME280;10573;50.936;6.978;2022-07-31T11:33:29;101178.53;;;31.29;32.77
20825;BME280;10573;50.936;6.978;2022-07-31T11:35:56;101176.22;;;31.21;32.86
20825;BME280;10573;50.936;6.978;2022-07-31T11:38:28;101183.63;;;30.46;33.59
20825;BME280;10573;50.936;6.978;2022-07-31T11:40:53;101188.72;;;30.22;33.87
20825;BME280;10573;50.936;6.978;2022-07-31T11:43:19;101175.81;;;30.59;33.66
20825;BME280;10573;50.936;6.978;2022-07-31T11:45:47;101187.13;;;30.32;34.60
20825;BME280;10573;50.936;6.978;2022-07-31T11:48:14;101185.59;;;30.19;32.84
20825;BME280;10573;50.936;6.978;2022-07-31T11:50:43;101180.00;;;30.24;33.18
20825;BME280;10573;50.936;6.978;2022-07-31T11:53:09;101185.50;;;29.59;34.62
20825;BME280;10573;50.936;6.978;2022-07-31T11:55:48;101175.34;;;29.13;35.90
20825;BME280;10573;50.936;6.978;2022-07-31T11:58:15;101184.88;;;28.73;36.45
20825;BME280;10573;50.936;6.978;2022-07-31T12:00:46;101178.97;;;29.31;35.42
20825;BME280;10573;50.936;6.978;2022-07-31T12:03:11;101173.56;;;29.07;36.60
20825;BME280;10573;50.936;6.978;2022-07-31T12:05:44;101177.16;;;29.64;35.79
20825;BME280;10573;50.936;6.978;2022-07-31T12:08:10;101159.97;;;31.33;33.84
20825;BME280;10573;50.936;6.978;2022-07-31T12:10:38;101163.44;;;33.31;31.36
20825;BME280;10573;50.936;6.978;2022-07-31T12:13:03;101159.41;;;33.48;30.09
20825;BME280;10573;50.936;6.978;2022-07-31T12:15:29;101157.06;;;34.44;29.30
20825;BME280;10573;50.936;6.978;2022-07-31T12:18:02;101147.22;;;35.20;28.86
20825;BME280;10573;50.936;6.978;2022-07-31T12:20:28;101148.78;;;35.55;27.52
20825;BME280;10573;50.936;6.978;2022-07-31T12:23:00;101151.16;;;33.61;29.78
20825;BME280;10573;50.936;6.978;2022-07-31T12:25:25;101146.38;;;33.57;30.17
20825;BME280;10573;50.936;6.978;2022-07-31T12:27:51;101151.63;;;33.74;31.01
20825;BME280;10573;50.936;6.978;2022-07-31T12:30:17;101152.91;;;33.97;30.53
20825;BME280;10573;50.936;6.978;2022-07-31T12:32:42;101145.56;;;33.96;29.96
20825;BME280;10573;50.936;6.978;2022-07-31T12:35:08;101143.72;;;33.71;31.01
20825;BME280;10573;50.936;6.978;2022-07-31T12:37:46;101136.09;;;34.51;30.31
20825;BME280;10573;50.936;6.978;2022-07-31T12:40:25;101141.72;;;34.85;28.62
20825;BME280;10573;50.936;6.978;2022-07-31T12:42:51;101135.72;;;33.38;31.03
20825;BME280;10573;50.936;6.978;2022-07-31T12:45:26;101134.28;;;32.29;32.78
20825;BME280;10573;50.936;6.978;2022-07-31T12:47:52;101124.97;;;32.18;32.85
20825;BME280;10573;50.936;6.978;2022-07-31T12:50:21;101118.75;;;31.95;34.01
20825;BME280;10573;50.936;6.978;2022-07-31T12:52:46;101128.31;;;31.94;34.24
20825;BME280;10573;50.936;6.978;2022-07-31T12:55:12;101139.28;;;31.70;33.71
20825;BME280;10573;50.936;6.978;2022-07-31T12:57:37;101133.13;;;31.94;33.32
20825;BME280;10573;50.936;6.978;2022-07-31T13:00:03;101120.72;;;32.57;32.49
20825;BME280;10573;50.936;6.978;2022-07-31T13:02:29;101117.50;;;33.05;31.89